Time,TemperatureF,DewpointF,PressureIn,WindDirection,WindDirectionDegrees,WindSpeedMPH,WindSpeedGustMPH,Humidity,HourlyPrecipIn,Conditions,Clouds,dailyrainin,SoftwareType,DateUTC
2013-02-11 00:00:00,21.5,0.0,30.33,SSW,198,0.0,0.0,0,0.00,,---,0.00,VWS V14.00,2013-02-11 05:00:00,
2013-02-11 00:01:00,33.3,0.0,29.60,SSW,202,0.0,0.0,0,0.00,,---,0.00,VWS V14.00,2013-02-11 05:01:00,
2013-02-11 00:02:00,33.3,0.0,29.60,SSW,202,0.0,0.0,0,0.00,,---,0.00,VWS V14.00,2013-02-11 05:02:00,
2013-02-11 00:03:00,33.3,0.0,29.59,SSW,202,0.0,0.0,0,0.00,,---,0.00,VWS V14.00,2013-02-11 05:03:00,
2013-02-11 00:04:00,33.3,0.0,29.59,SSW,202,0.0,0.0,0,0.00,,---,0.00,VWS V14.00,2013-02-11 05:04:00,
2013-02-11 00:05:00,21.8,0.0,30.33,SSW,198,0.0,0.0,0,0.00,,---,0.00,VWS V14.00,2013-02-11 05:05:00,
2013-02-11 00:06:00,33.3,0.0,29.59,SSW,202,0.0,0.0,0,0.00,,---,0.00,VWS V14.00,2013-02-11 05:06:00,
2013-02-11 00:07:00,33.4,0.0,29.59,SSW,202,0.0,0.0,0,0.00,,---,0.00,VWS V14.00,2013-02-11 05:07:00,
2013-02-11 00:10:00,22.7,0.0,30.33,SSW,198,0.0,0.0,0,0.00,,---,0.00,VWS V14.00,2013-02-11 05:10:00,
2013-02-11 00:15:00,22.1,0.0,30.33,SSW,198,0.0,0.0,0,0.00,,---,0.00,VWS V14.00,2013-02-11 05:15:00,
2013-02-11 00:20:00,21.7,0.0,30.32,SSW,198,0.0,0.0,0,0.00,,---,0.00,VWS V14.00,2013-02-11 05:20:00,
2013-02-11 00:25:00,21.7,0.0,30.32,SSW,198,0.0,0.0,0,0.00,,---,0.00,VWS V14.00,2013-02-11 05:25:00,
2013-02-11 00:30:00,21.9,0.0,30.33,SSW,198,0.0,0.0,0,0.00,,---,0.00,VWS V14.00,2013-02-11 05:30:00,
2013-02-11 00:35:00,21.8,0.0,30.32,SSW,198,0.0,0.0,0,0.00,,---,0.00,VWS V14.00,2013-02-11 05:35:00,
2013-02-11 00:40:00,21.7,0.0,30.32,SSW,198,0.0,0.0,0,0.00,,---,0.00,VWS V14.00,2013-02-11 05:40:00,
2013-02-11 00:45:00,21.6,0.0,30.32,SSW,198,0.0,0.0,0,0.00,,---,0.00,VWS V14.00,2013-02-11 05:45:00,
2013-02-11 00:50:00,21.6,0.0,30.32,SSW,198,0.0,0.0,0,0.00,,---,0.00,VWS V14.00,2013-02-11 05:50:00,
2013-02-11 00:55:00,21.4,0.0,30.32,SSW,198,0.0,0.0,0,0.00,,---,0.00,VWS V14.00,2013-02-11 05:55:00,
2013-02-11 01:00:00,21.4,0.0,30.32,SSW,198,0.0,0.0,0,0.00,,---,0.00,VWS V14.00,2013-02-11 06:00:00,
2013-02-11 01:05:00,21.2,0.0,30.32,SSW,198,0.0,0.0,0,0.00,,---,0.00,VWS V14.00,2013-02-11 06:05:00,
2013-02-11 01:10:00,21.0,0.0,30.32,SSW,198,0.0,0.0,0,0.00,,---,0.00,VWS V14.00,2013-02-11 06:10:00,
2013-02-11 01:15:00,20.9,0.0,30.31,SSW,198,0.0,0.0,0,0.00,,---,0.00,VWS V14.00,2013-02-11 06:15:00,
2013-02-11 01:20:00,20.7,0.0,30.31,SSW,198,0.0,0.0,0,0.00,,---,0.00,VWS V14.00,2013-02-11 06:20:00,
2013-02-11 01:25:00,20.9,0.0,30.30,SSW,198,0.0,0.0,0,0.00,,---,0.00,VWS V14.00,2013-02-11 06:25:00,
2013-02-11 01:30:00,21.0,0.0,30.31,SSW,198,0.0,0.0,0,0.00,,---,0.00,VWS V14.00,2013-02-11 06:30:00,
2013-02-11 01:35:00,20.8,0.0,30.30,SSW,198,0.0,0.0,0,0.00,,---,0.00,VWS V14.00,2013-02-11 06:35:00,
2013-02-11 01:40:00,20.6,0.0,30.30,SSW,198,0.0,0.0,0,0.00,,---,0.00,VWS V14.00,2013-02-11 06:40:00,
2013-02-11 01:45:00,20.9,0.0,30.30,SSW,198,0.0,0.0,0,0.00,,---,0.00,VWS V14.00,2013-02-11 06:45:00,
2013-02-11 01:50:00,21.1,0.0,30.30,SSW,198,0.0,0.0,0,0.00,,---,0.00,VWS V14.00,2013-02-11 06:50:00,
2013-02-11 01:55:00,21.4,0.0,30.30,SSW,198,0.0,0.0,0,0.00,,---,0.00,VWS V14.00,2013-02-11 06:55:00,
2013-02-11 02:00:00,21.4,0.0,30.30,SSW,198,0.0,0.0,0,0.00,,---,0.00,VWS V14.00,2013-02-11 07:00:00,
2013-02-11 02:05:00,21.4,0.0,30.29,SSW,198,0.0,0.0,0,0.00,,---,0.00,VWS V14.00,2013-02-11 07:05:00,
2013-02-11 02:10:00,21.1,0.0,30.28,SSW,198,0.0,0.0,0,0.00,,---,0.00,VWS V14.00,2013-02-11 07:10:00,
2013-02-11 02:15:00,20.8,0.0,30.28,SSW,198,0.0,0.0,0,0.00,,---,0.00,VWS V14.00,2013-02-11 07:15:00,
2013-02-11 02:20:00,20.9,0.0,30.28,SSW,198,0.0,0.0,0,0.00,,---,0.00,VWS V14.00,2013-02-11 07:20:00,
2013-02-11 02:25:00,20.7,0.0,30.28,SSW,198,0.0,0.0,0,0.00,,---,0.00,VWS V14.00,2013-02-11 07:25:00,
2013-02-11 02:30:00,20.8,0.0,30.28,SSW,198,0.0,0.0,0,0.00,,---,0.00,VWS V14.00,2013-02-11 07:30:00,
2013-02-11 02:35:00,20.7,0.0,30.28,SSW,198,0.0,0.0,0,0.00,,---,0.00,VWS V14.00,2013-02-11 07:35:00,
2013-02-11 02:40:00,20.6,0.0,30.28,SSW,198,0.0,0.0,0,0.00,,---,0.00,VWS V14.00,2013-02-11 07:40:00,
2013-02-11 02:45:00,20.5,0.0,30.28,SSW,198,0.0,0.0,0,0.00,,---,0.00,VWS V14.00,2013-02-11 07:45:00,
2013-02-11 02:50:00,20.4,0.0,30.28,SSW,198,0.0,0.0,0,0.00,,---,0.00,VWS V14.00,2013-02-11 07:50:00,
2013-02-11 02:55:00,20.6,0.0,30.27,SSW,198,0.0,0.0,0,0.00,,---,0.00,VWS V14.00,2013-02-11 07:55:00,
2013-02-11 03:00:00,20.6,0.0,30.27,SSW,198,0.0,0.0,0,0.00,,---,0.00,VWS V14.00,2013-02-11 08:00:00,
2013-02-11 03:05:00,20.6,0.0,30.26,SSW,198,0.0,0.0,0,0.00,,---,0.00,VWS V14.00,2013-02-11 08:05:00,
2013-02-11 03:10:00,20.4,0.0,30.27,SSW,198,0.0,0.0,0,0.00,,---,0.00,VWS V14.00,2013-02-11 08:10:00,
2013-02-11 03:15:00,20.4,0.0,30.27,SSW,198,0.0,0.0,0,0.00,,---,0.00,VWS V14.00,2013-02-11 08:15:00,
2013-02-11 03:20:00,20.2,0.0,30.27,SSW,198,0.0,0.0,0,0.00,,---,0.00,VWS V14.00,2013-02-11 08:20:00,
2013-02-11 03:25:00,20.3,0.0,30.27,SSW,198,0.0,0.0,0,0.00,,---,0.00,VWS V14.00,2013-02-11 08:25:00,
2013-02-11 03:30:00,20.4,0.0,30.27,SSW,198,0.0,0.0,0,0.00,,---,0.00,VWS V14.00,2013-02-11 08:30:00,
2013-02-11 03:35:00,20.3,0.0,30.27,SSW,198,0.0,0.0,0,0.00,,---,0.00,VWS V14.00,2013-02-11 08:35:00,
2013-02-11 03:40:00,20.1,0.0,30.27,SSW,198,0.0,0.0,0,0.00,,---,0.00,VWS V14.00,2013-02-11 08:40:00,
2013-02-11 03:45:00,20.3,0.0,30.28,SSW,198,0.0,0.0,0,0.00,,---,0.00,VWS V14.00,2013-02-11 08:45:00,
2013-02-11 03:50:00,20.1,0.0,30.28,SSW,198,0.0,0.0,0,0.00,,---,0.00,VWS V14.00,2013-02-11 08:50:00,
2013-02-11 03:55:00,20.3,0.0,30.27,SSW,198,0.0,0.0,0,0.00,,---,0.00,VWS V14.00,2013-02-11 08:55:00,
2013-02-11 04:00:00,20.5,0.0,30.26,SSW,198,0.0,0.0,0,0.00,,---,0.00,VWS V14.00,2013-02-11 09:00:00,
2013-02-11 04:05:00,20.4,0.0,30.26,SSW,198,0.0,0.0,0,0.00,,---,0.00,VWS V14.00,2013-02-11 09:05:00,
2013-02-11 04:10:00,20.3,0.0,30.26,SSW,198,0.0,0.0,0,0.00,,---,0.00,VWS V14.00,2013-02-11 09:10:00,
2013-02-11 04:15:00,20.5,0.0,30.26,SSW,198,0.0,0.0,0,0.00,,---,0.00,VWS V14.00,2013-02-11 09:15:00,
2013-02-11 04:20:00,20.6,0.0,30.26,SSW,198,0.0,0.0,0,0.00,,---,0.00,VWS V14.00,2013-02-11 09:20:00,
2013-02-11 04:25:00,20.5,0.0,30.26,SSW,198,0.0,0.0,0,0.00,,---,0.00,VWS V14.00,2013-02-11 09:25:00,
2013-02-11 04:30:00,20.3,0.0,30.26,SSW,198,0.0,0.0,0,0.00,,---,0.00,VWS V14.00,2013-02-11 09:30:00,
2013-02-11 04:35:00,20.5,0.0,30.25,SSW,198,0.0,0.0,0,0.00,,---,0.00,VWS V14.00,2013-02-11 09:35:00,
2013-02-11 04:40:00,20.6,0.0,30.25,SSW,198,0.0,0.0,0,0.00,,---,0.00,VWS V14.00,2013-02-11 09:40:00,
2013-02-11 04:45:00,20.5,0.0,30.25,SSW,198,0.0,0.0,0,0.00,,---,0.00,VWS V14.00,2013-02-11 09:45:00,
2013-02-11 04:50:00,20.7,0.0,30.24,SSW,198,0.0,0.0,0,0.00,,---,0.00,VWS V14.00,2013-02-11 09:50:00,
2013-02-11 04:55:00,21.2,0.0,30.24,SSW,198,0.0,0.0,0,0.00,,---,0.00,VWS V14.00,2013-02-11 09:55:00,
2013-02-11 05:00:00,21.1,0.0,30.23,SSW,198,0.0,0.0,0,0.00,,---,0.00,VWS V14.00,2013-02-11 10:00:00,
2013-02-11 05:05:00,20.8,0.0,30.23,SSW,198,0.0,0.0,0,0.00,,---,0.00,VWS V14.00,2013-02-11 10:05:00,
2013-02-11 05:10:00,20.8,0.0,30.23,SSW,198,0.0,0.0,0,0.00,,---,0.00,VWS V14.00,2013-02-11 10:10:00,
2013-02-11 05:15:00,21.0,0.0,30.23,SSW,198,0.0,0.0,0,0.00,,---,0.00,VWS V14.00,2013-02-11 10:15:00,
2013-02-11 05:20:00,20.9,0.0,30.22,SSW,198,0.0,0.0,0,0.00,,---,0.00,VWS V14.00,2013-02-11 10:20:00,
2013-02-11 05:25:00,21.2,0.0,30.22,SSW,198,0.0,0.0,0,0.00,,---,0.00,VWS V14.00,2013-02-11 10:25:00,
2013-02-11 05:30:00,21.2,0.0,30.22,SSW,198,0.0,0.0,0,0.00,,---,0.00,VWS V14.00,2013-02-11 10:30:00,
2013-02-11 05:35:00,21.5,0.0,30.22,SSW,198,0.0,0.0,0,0.00,,---,0.00,VWS V14.00,2013-02-11 10:35:00,
2013-02-11 05:40:00,22.0,0.0,30.22,SSW,198,0.0,0.0,0,0.00,,---,0.00,VWS V14.00,2013-02-11 10:40:00,
2013-02-11 05:45:00,22.0,0.0,30.22,SSW,198,0.0,0.0,0,0.00,,---,0.00,VWS V14.00,2013-02-11 10:45:00,
2013-02-11 05:50:00,22.1,0.0,30.22,SSW,198,0.0,0.0,0,0.00,,---,0.00,VWS V14.00,2013-02-11 10:50:00,
2013-02-11 05:55:00,22.5,0.0,30.22,SSW,198,0.0,0.0,0,0.00,,---,0.00,VWS V14.00,2013-02-11 10:55:00,
2013-02-11 06:00:00,22.5,0.0,30.22,SSW,198,0.0,0.0,0,0.00,,---,0.00,VWS V14.00,2013-02-11 11:00:00,
2013-02-11 06:05:00,22.7,0.0,30.22,SSW,198,0.0,0.0,0,0.00,,---,0.00,VWS V14.00,2013-02-11 11:05:00,
2013-02-11 06:10:00,23.1,0.0,30.23,SSW,198,0.0,0.0,0,0.00,,---,0.00,VWS V14.00,2013-02-11 11:10:00,
2013-02-11 06:15:00,23.4,0.0,30.22,SSW,198,0.0,0.0,0,0.00,,---,0.00,VWS V14.00,2013-02-11 11:15:00,
2013-02-11 06:20:00,23.2,0.0,30.22,SSW,198,0.0,0.0,0,0.00,,---,0.00,VWS V14.00,2013-02-11 11:20:00,
2013-02-11 06:25:00,23.4,0.0,30.23,SSW,198,0.0,0.0,0,0.00,,---,0.00,VWS V14.00,2013-02-11 11:25:00,
2013-02-11 06:30:00,23.2,0.0,30.22,SSW,198,0.0,0.0,0,0.00,,---,0.00,VWS V14.00,2013-02-11 11:30:00,
2013-02-11 06:35:00,23.3,0.0,30.22,SSW,198,0.0,0.0,0,0.00,,---,0.00,VWS V14.00,2013-02-11 11:35:00,
2013-02-11 06:40:00,23.9,0.0,30.21,SSW,198,0.0,0.0,0,0.00,,---,0.00,VWS V14.00,2013-02-11 11:40:00,
2013-02-11 06:45:00,24.1,0.0,30.21,SSW,198,0.0,0.0,0,0.00,,---,0.00,VWS V14.00,2013-02-11 11:45:00,
2013-02-11 06:50:00,23.9,0.0,30.21,SSW,198,0.0,0.0,0,0.00,,---,0.00,VWS V14.00,2013-02-11 11:50:00,
2013-02-11 06:55:00,24.0,0.0,30.20,SSW,198,0.0,0.0,0,0.00,,---,0.00,VWS V14.00,2013-02-11 11:55:00,
2013-02-11 07:00:00,24.1,0.0,30.20,SSW,198,0.0,0.0,0,0.00,,---,0.00,VWS V14.00,2013-02-11 12:00:00,
2013-02-11 07:05:00,24.3,0.0,30.20,SSW,198,0.0,0.0,0,0.00,,---,0.00,VWS V14.00,2013-02-11 12:05:00,
2013-02-11 07:10:00,24.9,0.0,30.20,SSW,198,0.0,0.0,0,0.00,,---,0.00,VWS V14.00,2013-02-11 12:10:00,
2013-02-11 07:15:00,25.4,0.0,30.20,SSW,198,0.0,0.0,0,0.00,,---,0.00,VWS V14.00,2013-02-11 12:15:00,
2013-02-11 07:20:00,25.8,0.0,30.20,SSW,198,0.0,0.0,0,0.00,,---,0.00,VWS V14.00,2013-02-11 12:20:00,
2013-02-11 07:25:00,25.8,0.0,30.20,SSW,198,0.0,0.0,0,0.00,,---,0.00,VWS V14.00,2013-02-11 12:25:00,
2013-02-11 07:30:00,25.9,0.0,30.20,SSW,198,0.0,0.0,0,0.00,,---,0.00,VWS V14.00,2013-02-11 12:30:00,
2013-02-11 07:35:00,26.1,0.0,30.20,SSW,198,0.0,0.0,0,0.00,,---,0.00,VWS V14.00,2013-02-11 12:35:00,
2013-02-11 07:40:00,25.4,0.0,30.20,SSW,198,0.0,0.0,0,0.00,,---,0.00,VWS V14.00,2013-02-11 12:40:00,
2013-02-11 07:45:00,25.4,0.0,30.19,SSW,198,0.0,0.0,0,0.00,,---,0.00,VWS V14.00,2013-02-11 12:45:00,
2013-02-11 07:50:00,26.1,0.0,30.19,SSW,198,0.0,0.0,0,0.00,,---,0.00,VWS V14.00,2013-02-11 12:50:00,
2013-02-11 07:55:00,26.5,0.0,30.19,SSW,198,0.0,0.0,0,0.00,,---,0.00,VWS V14.00,2013-02-11 12:55:00,
2013-02-11 08:00:00,26.8,0.0,30.18,SSW,198,0.0,0.0,0,0.00,,---,0.00,VWS V14.00,2013-02-11 13:00:00,
2013-02-11 08:05:00,27.1,0.0,30.18,SSW,198,0.0,0.0,0,0.00,,---,0.00,VWS V14.00,2013-02-11 13:05:00,
2013-02-11 08:10:00,27.3,0.0,30.18,SSW,198,0.0,0.0,0,0.00,,---,0.00,VWS V14.00,2013-02-11 13:10:00,
2013-02-11 08:15:00,27.6,0.0,30.18,SSW,198,0.0,0.0,0,0.00,,---,0.00,VWS V14.00,2013-02-11 13:15:00,
2013-02-11 08:20:00,27.9,0.0,30.17,SSW,198,0.0,0.0,0,0.00,,---,0.00,VWS V14.00,2013-02-11 13:20:00,
2013-02-11 08:25:00,28.1,0.0,30.17,SSW,198,0.0,0.0,0,0.00,,---,0.00,VWS V14.00,2013-02-11 13:25:00,
2013-02-11 08:30:00,28.4,0.0,30.17,SSW,198,0.0,0.0,0,0.00,,---,0.00,VWS V14.00,2013-02-11 13:30:00,
2013-02-11 08:35:00,28.5,0.0,30.17,SSW,198,0.0,0.0,0,0.00,,---,0.00,VWS V14.00,2013-02-11 13:35:00,
2013-02-11 08:40:00,28.8,0.0,30.16,SSW,198,0.0,0.0,0,0.00,,---,0.00,VWS V14.00,2013-02-11 13:40:00,
2013-02-11 08:45:00,28.9,0.0,30.16,SSW,198,0.0,0.0,0,0.00,,---,0.00,VWS V14.00,2013-02-11 13:45:00,
2013-02-11 08:50:00,29.0,0.0,30.16,SSW,198,0.0,0.0,0,0.00,,---,0.00,VWS V14.00,2013-02-11 13:50:00,
2013-02-11 08:55:00,29.1,0.0,30.16,SSW,198,0.0,0.0,0,0.00,,---,0.00,VWS V14.00,2013-02-11 13:55:00,
2013-02-11 09:00:00,29.2,0.0,30.15,SSW,198,0.0,0.0,0,0.00,,---,0.00,VWS V14.00,2013-02-11 14:00:00,
2013-02-11 09:05:00,29.2,0.0,30.15,SSW,198,0.0,0.0,0,0.00,,---,0.00,VWS V14.00,2013-02-11 14:05:00,
2013-02-11 09:10:00,29.5,0.0,30.15,SSW,198,0.0,0.0,0,0.00,,---,0.00,VWS V14.00,2013-02-11 14:10:00,
2013-02-11 09:15:00,29.5,0.0,30.15,SSW,198,0.0,0.0,0,0.00,,---,0.00,VWS V14.00,2013-02-11 14:15:00,
2013-02-11 09:20:00,29.4,0.0,30.14,SSW,198,0.0,0.0,0,0.00,,---,0.00,VWS V14.00,2013-02-11 14:20:00,
2013-02-11 09:25:00,29.5,0.0,30.13,SSW,198,0.0,0.0,0,0.00,,---,0.00,VWS V14.00,2013-02-11 14:25:00,
2013-02-11 09:30:00,29.6,0.0,30.13,SSW,198,0.0,0.0,0,0.00,,---,0.00,VWS V14.00,2013-02-11 14:30:00,
2013-02-11 09:35:00,29.6,0.0,30.12,SSW,198,0.0,0.0,0,0.00,,---,0.00,VWS V14.00,2013-02-11 14:35:00,
2013-02-11 09:40:00,30.1,0.0,30.12,SSW,198,0.0,0.0,0,0.00,,---,0.00,VWS V14.00,2013-02-11 14:40:00,
2013-02-11 09:45:00,30.3,0.0,30.11,SSW,198,0.0,0.0,0,0.00,,---,0.00,VWS V14.00,2013-02-11 14:45:00,
2013-02-11 09:50:00,30.1,0.0,30.11,SSW,198,0.0,0.0,0,0.00,,---,0.00,VWS V14.00,2013-02-11 14:50:00,
2013-02-11 09:55:00,30.4,0.0,30.10,SSW,198,0.0,0.0,0,0.00,,---,0.00,VWS V14.00,2013-02-11 14:55:00,
2013-02-11 10:00:00,30.7,0.0,30.09,SSW,198,0.0,0.0,0,0.00,,---,0.00,VWS V14.00,2013-02-11 15:00:00,
2013-02-11 10:05:00,30.9,0.0,30.09,SSW,198,0.0,0.0,0,0.00,,---,0.00,VWS V14.00,2013-02-11 15:05:00,
2013-02-11 10:10:00,32.0,0.0,30.09,SSW,198,0.0,0.0,0,0.00,,---,0.00,VWS V14.00,2013-02-11 15:10:00,
2013-02-11 10:15:00,33.7,0.0,30.08,SSW,198,0.0,0.0,0,0.00,,---,0.00,VWS V14.00,2013-02-11 15:15:00,
2013-02-11 10:20:00,33.6,0.0,30.08,SSW,198,0.0,4.3,0,0.00,,---,0.00,VWS V14.00,2013-02-11 15:20:00,
2013-02-11 10:25:00,33.8,0.0,30.08,South,184,4.4,0.0,0,0.00,,---,0.00,VWS V14.00,2013-02-11 15:25:00,
2013-02-11 10:30:00,33.8,0.0,30.07,SSE,153,8.3,13.1,0,0.00,,---,0.00,VWS V14.00,2013-02-11 15:30:00,
2013-02-11 10:35:00,33.9,0.0,30.06,SSE,156,13.1,14.9,0,0.00,,---,0.00,VWS V14.00,2013-02-11 15:35:00,
2013-02-11 10:40:00,33.9,0.0,30.06,SSE,149,10.9,14.9,0,0.00,,---,0.00,VWS V14.00,2013-02-11 15:40:00,
2013-02-11 10:45:00,33.9,0.0,30.06,South,188,7.1,11.7,0,0.00,,---,0.00,VWS V14.00,2013-02-11 15:45:00,
2013-02-11 10:50:00,34.1,0.0,30.06,SSE,159,3.2,13.0,0,0.00,,---,0.00,VWS V14.00,2013-02-11 15:50:00,
2013-02-11 10:55:00,34.1,0.0,30.06,SSE,166,8.5,10.3,0,0.00,,---,0.00,VWS V14.00,2013-02-11 15:55:00,
2013-02-11 11:00:00,34.3,0.0,30.05,SSE,159,6.2,9.9,0,0.01,,---,0.01,VWS V14.00,2013-02-11 16:00:00,
2013-02-11 11:05:00,34.6,0.0,30.05,SSE,162,8.5,10.4,0,0.03,,---,0.03,VWS V14.00,2013-02-11 16:05:00,
2013-02-11 11:10:00,34.8,0.0,30.04,South,172,8.7,11.6,0,0.04,,---,0.04,VWS V14.00,2013-02-11 16:10:00,
2013-02-11 11:15:00,35.0,0.0,30.03,South,170,7.7,11.6,0,0.05,,---,0.05,VWS V14.00,2013-02-11 16:15:00,
2013-02-11 11:20:00,34.9,0.0,30.03,SSW,212,5.2,11.2,0,0.07,,---,0.07,VWS V14.00,2013-02-11 16:20:00,
2013-02-11 11:25:00,34.9,0.0,30.02,South,184,6.1,10.1,0,0.09,,---,0.09,VWS V14.00,2013-02-11 16:25:00,
2013-02-11 11:30:00,34.9,0.0,30.01,South,183,8.3,9.8,0,0.10,,---,0.10,VWS V14.00,2013-02-11 16:30:00,
2013-02-11 11:35:00,35.0,0.0,30.00,SSW,194,5.1,11.2,0,0.10,,---,0.10,VWS V14.00,2013-02-11 16:35:00,
2013-02-11 11:40:00,35.5,0.0,30.00,South,176,5.7,10.4,0,0.11,,---,0.11,VWS V14.00,2013-02-11 16:40:00,
2013-02-11 11:45:00,35.4,0.0,29.99,South,186,3.4,10.4,0,0.12,,---,0.12,VWS V14.00,2013-02-11 16:45:00,
2013-02-11 11:50:00,35.6,0.0,29.98,SSE,149,6.2,9.2,0,0.14,,---,0.13,VWS V14.00,2013-02-11 16:50:00,
2013-02-11 11:55:00,35.8,0.0,29.98,SSE,166,8.8,10.3,0,0.14,,---,0.14,VWS V14.00,2013-02-11 16:55:00,
2013-02-11 12:00:00,35.8,0.0,29.97,SSE,163,8.4,12.4,0,0.15,,---,0.15,VWS V14.00,2013-02-11 17:00:00,
2013-02-11 12:05:00,36.0,0.0,29.97,SSE,163,11.4,12.8,0,0.15,,---,0.15,VWS V14.00,2013-02-11 17:05:00,
2013-02-11 12:10:00,36.4,0.0,29.96,SE,139,10.4,14.2,0,0.15,,---,0.15,VWS V14.00,2013-02-11 17:10:00,
2013-02-11 12:15:00,36.1,0.0,29.95,SSE,148,11.9,17.1,0,0.12,,---,0.16,VWS V14.00,2013-02-11 17:15:00,
2013-02-11 12:20:00,36.0,0.0,29.94,SSE,149,14.3,15.2,0,0.12,,---,0.16,VWS V14.00,2013-02-11 17:20:00,
2013-02-11 12:25:00,36.2,0.0,29.93,SSE,149,13.7,16.7,0,0.12,,---,0.16,VWS V14.00,2013-02-11 17:25:00,
2013-02-11 12:30:00,36.1,0.0,29.93,SSE,159,10.5,17.8,0,0.13,,---,0.17,VWS V14.00,2013-02-11 17:30:00,
2013-02-11 12:35:00,36.1,0.0,29.92,SSE,155,11.3,17.7,0,0.07,,---,0.17,VWS V14.00,2013-02-11 17:35:00,
2013-02-11 12:40:00,36.2,0.0,29.91,SSE,159,9.3,15.8,0,0.08,,---,0.18,VWS V14.00,2013-02-11 17:40:00,
2013-02-11 12:45:00,36.2,0.0,29.91,SE,142,9.9,16.6,0,0.08,,---,0.18,VWS V14.00,2013-02-11 17:45:00,
2013-02-11 12:50:00,36.3,0.0,29.90,SSE,153,13.9,16.6,0,0.08,,---,0.18,VWS V14.00,2013-02-11 17:50:00,
2013-02-11 12:55:00,36.4,0.0,29.89,SSE,156,12.7,17.5,0,0.05,,---,0.19,VWS V14.00,2013-02-11 17:55:00,
2013-02-11 13:00:00,36.4,0.0,29.88,SSE,159,14.9,19.2,0,0.05,,---,0.19,VWS V14.00,2013-02-11 18:00:00,
2013-02-11 13:05:00,36.4,0.0,29.88,South,172,13.7,20.9,0,0.05,,---,0.19,VWS V14.00,2013-02-11 18:05:00,
2013-02-11 13:10:00,36.2,0.0,29.87,SSE,165,8.8,17.0,0,0.07,,---,0.21,VWS V14.00,2013-02-11 18:10:00,
2013-02-11 13:15:00,36.4,0.0,29.86,SSE,149,12.0,14.8,0,0.06,,---,0.22,VWS V14.00,2013-02-11 18:15:00,
2013-02-11 13:20:00,36.2,0.0,29.86,SE,141,9.1,15.0,0,0.07,,---,0.23,VWS V14.00,2013-02-11 18:20:00,
2013-02-11 13:25:00,36.3,0.0,29.85,SSE,162,9.0,12.9,0,0.08,,---,0.24,VWS V14.00,2013-02-11 18:25:00,
2013-02-11 13:30:00,36.3,0.0,29.85,South,173,10.8,13.2,0,0.08,,---,0.24,VWS V14.00,2013-02-11 18:30:00,
2013-02-11 13:35:00,36.6,0.0,29.84,SSW,202,0.0,12.7,0,0.07,,---,0.24,VWS V14.00,2013-02-11 18:35:00,
2013-02-11 13:40:00,36.4,0.0,29.83,SSW,202,0.0,0.0,0,0.07,,---,0.24,VWS V14.00,2013-02-11 18:40:00,
2013-02-11 13:45:00,36.5,0.0,29.83,SSW,202,0.0,0.0,0,0.08,,---,0.25,VWS V14.00,2013-02-11 18:45:00,
2013-02-11 13:50:00,36.6,0.0,29.82,SSW,202,0.0,0.0,0,0.08,,---,0.25,VWS V14.00,2013-02-11 18:50:00,
2013-02-11 13:55:00,36.5,0.0,29.82,SSW,202,0.0,0.0,0,0.06,,---,0.25,VWS V14.00,2013-02-11 18:55:00,
2013-02-11 14:00:00,36.7,0.0,29.82,SSW,202,0.0,0.0,0,0.06,,---,0.25,VWS V14.00,2013-02-11 19:00:00,
2013-02-11 14:05:00,36.5,0.0,29.81,SSW,202,0.0,0.0,0,0.06,,---,0.25,VWS V14.00,2013-02-11 19:05:00,
2013-02-11 14:10:00,36.6,0.0,29.81,SSW,202,0.0,0.0,0,0.06,,---,0.25,VWS V14.00,2013-02-11 19:10:00,
2013-02-11 14:15:00,36.6,0.0,29.80,SSW,202,0.0,0.0,0,0.04,,---,0.25,VWS V14.00,2013-02-11 19:15:00,
2013-02-11 14:20:00,36.9,0.0,29.79,SSW,202,0.0,0.0,0,0.04,,---,0.25,VWS V14.00,2013-02-11 19:20:00,
2013-02-11 14:25:00,36.8,0.0,29.79,SSW,202,0.0,0.0,0,0.05,,---,0.26,VWS V14.00,2013-02-11 19:25:00,
2013-02-11 14:30:00,36.9,0.0,29.79,SSW,202,0.0,0.0,0,0.05,,---,0.26,VWS V14.00,2013-02-11 19:30:00,
2013-02-11 14:35:00,36.9,0.0,29.79,SSW,202,0.0,0.0,0,0.02,,---,0.26,VWS V14.00,2013-02-11 19:35:00,
2013-02-11 14:40:00,36.7,0.0,29.79,SSW,202,0.0,0.0,0,0.02,,---,0.26,VWS V14.00,2013-02-11 19:40:00,
2013-02-11 14:45:00,36.8,0.0,29.79,SSW,202,0.0,0.0,0,0.02,,---,0.26,VWS V14.00,2013-02-11 19:45:00,
2013-02-11 14:50:00,36.9,0.0,29.79,SSW,202,0.0,0.0,0,0.02,,---,0.26,VWS V14.00,2013-02-11 19:50:00,
2013-02-11 14:55:00,37.0,0.0,29.78,SSW,202,0.0,0.0,0,0.01,,---,0.26,VWS V14.00,2013-02-11 19:55:00,
2013-02-11 15:00:00,36.9,0.0,29.78,SSW,202,0.0,0.0,0,0.01,,---,0.26,VWS V14.00,2013-02-11 20:00:00,
2013-02-11 15:05:00,36.9,0.0,29.78,SSW,202,0.0,0.0,0,0.01,,---,0.26,VWS V14.00,2013-02-11 20:05:00,
2013-02-11 15:10:00,37.3,0.0,29.78,SSW,202,0.0,0.0,0,0.01,,---,0.26,VWS V14.00,2013-02-11 20:10:00,
2013-02-11 15:15:00,37.0,0.0,29.78,SSW,202,0.0,0.0,0,0.01,,---,0.26,VWS V14.00,2013-02-11 20:15:00,
2013-02-11 15:20:00,36.9,0.0,29.78,SSW,202,0.0,0.0,0,0.01,,---,0.26,VWS V14.00,2013-02-11 20:20:00,
2013-02-11 15:25:00,36.8,0.0,29.77,SSW,202,0.0,0.0,0,0.02,,---,0.27,VWS V14.00,2013-02-11 20:25:00,
2013-02-11 15:30:00,36.9,0.0,29.77,SSW,202,0.0,0.0,0,0.02,,---,0.27,VWS V14.00,2013-02-11 20:30:00,
2013-02-11 15:35:00,37.0,0.0,29.76,SSW,202,0.0,0.0,0,0.02,,---,0.28,VWS V14.00,2013-02-11 20:35:00,
2013-02-11 15:40:00,37.1,0.0,29.76,SSW,202,0.0,0.0,0,0.03,,---,0.29,VWS V14.00,2013-02-11 20:40:00,
2013-02-11 15:45:00,37.0,0.0,29.76,SSW,202,0.0,0.0,0,0.05,,---,0.31,VWS V14.00,2013-02-11 20:45:00,
2013-02-11 15:50:00,37.2,0.0,29.76,SSW,202,0.0,0.0,0,0.05,,---,0.31,VWS V14.00,2013-02-11 20:50:00,
2013-02-11 15:55:00,37.2,0.0,29.76,SSW,202,0.0,0.0,0,0.05,,---,0.31,VWS V14.00,2013-02-11 20:55:00,
2013-02-11 16:00:00,37.7,0.0,29.76,SSW,202,0.0,0.0,0,0.06,,---,0.32,VWS V14.00,2013-02-11 21:00:00,
2013-02-11 16:05:00,37.4,0.0,29.76,SSW,202,0.0,0.0,0,0.06,,---,0.32,VWS V14.00,2013-02-11 21:05:00,
2013-02-11 16:10:00,35.0,0.0,29.75,SSW,202,0.0,0.0,0,0.06,,---,0.32,VWS V14.00,2013-02-11 21:10:00,
2013-02-11 16:15:00,34.1,0.0,29.74,SSW,202,0.0,0.0,0,0.07,,---,0.33,VWS V14.00,2013-02-11 21:15:00,
2013-02-11 16:20:00,33.9,0.0,29.75,SSW,202,0.0,0.0,0,0.08,,---,0.34,VWS V14.00,2013-02-11 21:20:00,
2013-02-11 16:25:00,33.8,0.0,29.74,SSW,202,0.0,0.0,0,0.08,,---,0.34,VWS V14.00,2013-02-11 21:25:00,
2013-02-11 16:30:00,33.9,0.0,29.72,SSW,202,0.0,0.0,0,0.08,,---,0.34,VWS V14.00,2013-02-11 21:30:00,
2013-02-11 16:35:00,34.6,0.0,29.71,SSW,202,0.0,0.0,0,0.07,,---,0.34,VWS V14.00,2013-02-11 21:35:00,
2013-02-11 16:40:00,34.3,0.0,29.71,SSW,202,0.0,0.0,0,0.07,,---,0.34,VWS V14.00,2013-02-11 21:40:00,
2013-02-11 16:45:00,34.3,0.0,29.71,SSW,202,0.0,0.0,0,0.07,,---,0.34,VWS V14.00,2013-02-11 21:45:00,
2013-02-11 16:50:00,34.2,0.0,29.71,SSW,202,0.0,0.0,0,0.07,,---,0.34,VWS V14.00,2013-02-11 21:50:00,
2013-02-11 16:55:00,34.1,0.0,29.71,SSW,202,0.0,0.0,0,0.03,,---,0.34,VWS V14.00,2013-02-11 21:55:00,
2013-02-11 17:00:00,34.0,0.0,29.71,SSW,202,0.0,0.0,0,0.03,,---,0.34,VWS V14.00,2013-02-11 22:00:00,
2013-02-11 17:05:00,33.8,0.0,29.70,SSW,202,0.0,0.0,0,0.03,,---,0.34,VWS V14.00,2013-02-11 22:05:00,
2013-02-11 17:10:00,33.6,0.0,29.69,SSW,202,0.0,0.0,0,0.03,,---,0.34,VWS V14.00,2013-02-11 22:10:00,
2013-02-11 17:15:00,33.6,0.0,29.69,SSW,202,0.0,0.0,0,0.02,,---,0.34,VWS V14.00,2013-02-11 22:15:00,
2013-02-11 17:20:00,33.6,0.0,29.69,SSW,202,0.0,0.0,0,0.02,,---,0.34,VWS V14.00,2013-02-11 22:20:00,
2013-02-11 17:25:00,33.8,0.0,29.69,SSW,202,0.0,0.0,0,0.02,,---,0.34,VWS V14.00,2013-02-11 22:25:00,
2013-02-11 17:30:00,33.8,0.0,29.68,SSW,202,0.0,0.0,0,0.02,,---,0.34,VWS V14.00,2013-02-11 22:30:00,
2013-02-11 17:35:00,33.7,0.0,29.69,SSW,202,0.0,0.0,0,0.00,,---,0.34,VWS V14.00,2013-02-11 22:35:00,
2013-02-11 17:40:00,33.7,0.0,29.69,SSW,202,0.0,0.0,0,0.00,,---,0.34,VWS V14.00,2013-02-11 22:40:00,
2013-02-11 17:45:00,33.6,0.0,29.68,SSW,202,0.0,0.0,0,0.00,,---,0.34,VWS V14.00,2013-02-11 22:45:00,
2013-02-11 17:50:00,33.6,0.0,29.68,SSW,202,0.0,0.0,0,0.00,,---,0.34,VWS V14.00,2013-02-11 22:50:00,
2013-02-11 17:55:00,33.6,0.0,29.68,SSW,202,0.0,0.0,0,0.00,,---,0.34,VWS V14.00,2013-02-11 22:55:00,
2013-02-11 18:00:00,33.6,0.0,29.67,SSW,202,0.0,0.0,0,0.00,,---,0.34,VWS V14.00,2013-02-11 23:00:00,
2013-02-11 18:05:00,33.5,0.0,29.67,SSW,202,0.0,0.0,0,0.00,,---,0.34,VWS V14.00,2013-02-11 23:05:00,
2013-02-11 18:10:00,33.5,0.0,29.67,SSW,202,0.0,0.0,0,0.00,,---,0.34,VWS V14.00,2013-02-11 23:10:00,
2013-02-11 18:15:00,33.5,0.0,29.67,SSW,202,0.0,0.0,0,0.00,,---,0.34,VWS V14.00,2013-02-11 23:15:00,
2013-02-11 18:20:00,33.4,0.0,29.68,SSW,202,0.0,0.0,0,0.00,,---,0.34,VWS V14.00,2013-02-11 23:20:00,
2013-02-11 18:25:00,33.4,0.0,29.67,SSW,202,0.0,0.0,0,0.00,,---,0.34,VWS V14.00,2013-02-11 23:25:00,
2013-02-11 18:30:00,33.3,0.0,29.68,SSW,202,0.0,0.0,0,48.73,,---,0.34,VWS V14.00,2013-02-11 23:30:00,
2013-02-11 18:35:00,33.3,0.0,29.68,SSW,202,0.0,0.0,0,0.00,,---,0.34,VWS V14.00,2013-02-11 23:35:00,
2013-02-11 18:40:00,33.1,0.0,29.68,SSW,202,0.0,0.0,0,0.00,,---,0.34,VWS V14.00,2013-02-11 23:40:00,
2013-02-11 18:45:00,33.1,0.0,29.68,SSW,202,0.0,0.0,0,0.00,,---,0.34,VWS V14.00,2013-02-11 23:45:00,
2013-02-11 18:50:00,33.0,0.0,29.68,SSW,202,0.0,0.0,0,0.00,,---,0.34,VWS V14.00,2013-02-11 23:50:00,
2013-02-11 18:54:00,33.0,0.0,29.67,SSW,202,0.0,0.0,0,0.00,,---,0.34,VWS V14.00,2013-02-11 23:54:00,
2013-02-11 18:59:00,32.9,0.0,29.67,SSW,202,0.0,0.0,0,0.00,,---,0.34,VWS V14.00,2013-02-11 23:59:00,
2013-02-11 19:04:00,33.0,0.0,29.67,SSW,202,0.0,0.0,0,0.00,,---,0.34,VWS V14.00,2013-02-12 00:04:00,
2013-02-11 19:09:00,32.9,0.0,29.68,SSW,202,0.0,0.0,0,0.00,,---,0.34,VWS V14.00,2013-02-12 00:09:00,
2013-02-11 19:14:00,32.9,0.0,29.67,SSW,202,0.0,0.0,0,0.00,,---,0.34,VWS V14.00,2013-02-12 00:14:00,
2013-02-11 19:19:00,32.8,0.0,29.66,SSW,202,0.0,0.0,0,0.00,,---,0.34,VWS V14.00,2013-02-12 00:19:00,
2013-02-11 19:24:00,32.9,0.0,29.66,SSW,202,0.0,0.0,0,0.00,,---,0.34,VWS V14.00,2013-02-12 00:24:00,
2013-02-11 19:29:00,32.9,0.0,29.66,SSW,202,0.0,0.0,0,0.00,,---,0.34,VWS V14.00,2013-02-12 00:29:00,
2013-02-11 19:34:00,32.8,0.0,29.66,SSW,202,0.0,0.0,0,0.00,,---,0.34,VWS V14.00,2013-02-12 00:34:00,
2013-02-11 19:39:00,33.0,0.0,29.65,SSW,202,0.0,0.0,0,0.00,,---,0.34,VWS V14.00,2013-02-12 00:39:00,
2013-02-11 19:44:00,32.9,0.0,29.64,SSW,202,0.0,0.0,0,0.00,,---,0.34,VWS V14.00,2013-02-12 00:44:00,
2013-02-11 19:49:00,33.1,0.0,29.64,SSW,202,0.0,0.0,0,0.00,,---,0.34,VWS V14.00,2013-02-12 00:49:00,
2013-02-11 19:54:00,33.1,0.0,29.64,SSW,202,0.0,0.0,0,48.73,,---,0.34,VWS V14.00,2013-02-12 00:54:00,
2013-02-11 19:59:00,33.0,0.0,29.65,SSW,202,0.0,0.0,0,48.73,,---,0.34,VWS V14.00,2013-02-12 00:59:00,
2013-02-11 20:04:00,33.0,0.0,29.64,SSW,202,0.0,0.0,0,48.73,,---,0.34,VWS V14.00,2013-02-12 01:04:00,
2013-02-11 20:09:00,33.0,0.0,29.64,SSW,202,0.0,0.0,0,48.73,,---,0.34,VWS V14.00,2013-02-12 01:09:00,
2013-02-11 20:14:00,33.0,0.0,29.64,SSW,202,0.0,0.0,0,0.00,,---,0.34,VWS V14.00,2013-02-12 01:14:00,
2013-02-11 20:19:00,33.1,0.0,29.64,SSW,202,0.0,0.0,0,0.00,,---,0.34,VWS V14.00,2013-02-12 01:19:00,
2013-02-11 20:24:00,33.0,0.0,29.63,SSW,202,0.0,0.0,0,0.00,,---,0.34,VWS V14.00,2013-02-12 01:24:00,
2013-02-11 20:29:00,33.0,0.0,29.63,SSW,202,0.0,0.0,0,0.00,,---,0.34,VWS V14.00,2013-02-12 01:29:00,
2013-02-11 20:34:00,33.0,0.0,29.62,SSW,202,0.0,0.0,0,0.00,,---,0.34,VWS V14.00,2013-02-12 01:34:00,
2013-02-11 20:39:00,33.1,0.0,29.62,SSW,202,0.0,0.0,0,0.00,,---,0.34,VWS V14.00,2013-02-12 01:39:00,
2013-02-11 20:44:00,33.1,0.0,29.61,SSW,202,0.0,0.0,0,0.00,,---,0.34,VWS V14.00,2013-02-12 01:44:00,
2013-02-11 20:49:00,33.1,0.0,29.61,SSW,202,0.0,0.0,0,0.00,,---,0.34,VWS V14.00,2013-02-12 01:49:00,
2013-02-11 20:54:00,33.1,0.0,29.62,SSW,202,0.0,0.0,0,0.00,,---,0.34,VWS V14.00,2013-02-12 01:54:00,
2013-02-11 20:59:00,33.0,0.0,29.61,SSW,202,0.0,0.0,0,0.00,,---,0.34,VWS V14.00,2013-02-12 01:59:00,
2013-02-11 21:04:00,33.3,0.0,29.60,SSW,202,0.0,0.0,0,0.00,,---,0.34,VWS V14.00,2013-02-12 02:04:00,
2013-02-11 21:09:00,33.2,0.0,29.60,SSW,202,0.0,0.0,0,0.00,,---,0.34,VWS V14.00,2013-02-12 02:09:00,
2013-02-11 21:14:00,33.1,0.0,29.60,SSW,202,0.0,0.0,0,0.00,,---,0.34,VWS V14.00,2013-02-12 02:14:00,
2013-02-11 21:19:00,33.1,0.0,29.61,SSW,202,0.0,0.0,0,0.00,,---,0.34,VWS V14.00,2013-02-12 02:19:00,
2013-02-11 21:24:00,33.1,0.0,29.61,SSW,202,0.0,0.0,0,0.00,,---,0.34,VWS V14.00,2013-02-12 02:24:00,
2013-02-11 21:29:00,33.2,0.0,29.60,SSW,202,0.0,0.0,0,0.00,,---,0.34,VWS V14.00,2013-02-12 02:29:00,
2013-02-11 21:34:00,33.2,0.0,29.61,SSW,202,0.0,0.0,0,0.00,,---,0.34,VWS V14.00,2013-02-12 02:34:00,
2013-02-11 21:39:00,33.3,0.0,29.61,SSW,202,0.0,0.0,0,0.00,,---,0.34,VWS V14.00,2013-02-12 02:39:00,
2013-02-11 21:44:00,33.3,0.0,29.61,SSW,202,0.0,0.0,0,0.00,,---,0.34,VWS V14.00,2013-02-12 02:44:00,
2013-02-11 21:49:00,33.3,0.0,29.61,SSW,202,0.0,0.0,0,0.00,,---,0.34,VWS V14.00,2013-02-12 02:49:00,
2013-02-11 21:54:00,33.3,0.0,29.61,SSW,202,0.0,0.0,0,0.00,,---,0.34,VWS V14.00,2013-02-12 02:54:00,
2013-02-11 21:59:00,33.4,0.0,29.61,SSW,202,0.0,0.0,0,0.00,,---,0.34,VWS V14.00,2013-02-12 02:59:00,
2013-02-11 22:04:00,33.4,0.0,29.61,SSW,202,0.0,0.0,0,0.00,,---,0.34,VWS V14.00,2013-02-12 03:04:00,
2013-02-11 22:09:00,33.2,0.0,29.61,SSW,202,0.0,0.0,0,0.00,,---,0.34,VWS V14.00,2013-02-12 03:09:00,
2013-02-11 22:14:00,33.2,0.0,29.61,SSW,202,0.0,0.0,0,0.00,,---,0.34,VWS V14.00,2013-02-12 03:14:00,
2013-02-11 22:19:00,33.2,0.0,29.60,SSW,202,0.0,0.0,0,0.00,,---,0.34,VWS V14.00,2013-02-12 03:19:00,
2013-02-11 22:24:00,33.3,0.0,29.60,SSW,202,0.0,0.0,0,0.00,,---,0.34,VWS V14.00,2013-02-12 03:24:00,
2013-02-11 22:29:00,33.4,0.0,29.60,SSW,202,0.0,0.0,0,0.01,,---,0.35,VWS V14.00,2013-02-12 03:29:00,
2013-02-11 22:34:00,33.4,0.0,29.59,SSW,202,0.0,0.0,0,0.01,,---,0.35,VWS V14.00,2013-02-12 03:34:00,
2013-02-11 22:39:00,33.4,0.0,29.59,SSW,202,0.0,0.0,0,0.01,,---,0.35,VWS V14.00,2013-02-12 03:39:00,
2013-02-11 22:44:00,33.6,0.0,29.58,SSW,202,0.0,0.0,0,0.01,,---,0.35,VWS V14.00,2013-02-12 03:44:00,
2013-02-11 22:49:00,33.6,0.0,29.58,SSW,202,0.0,0.0,0,0.01,,---,0.35,VWS V14.00,2013-02-12 03:49:00,
2013-02-11 22:54:00,33.4,0.0,29.58,SSW,202,0.0,0.0,0,0.01,,---,0.35,VWS V14.00,2013-02-12 03:54:00,
2013-02-11 22:59:00,33.5,0.0,29.58,SSW,202,0.0,0.0,0,0.01,,---,0.35,VWS V14.00,2013-02-12 03:59:00,
2013-02-11 23:04:00,33.5,0.0,29.59,SSW,202,0.0,0.0,0,0.01,,---,0.35,VWS V14.00,2013-02-12 04:04:00,
2013-02-11 23:09:00,33.5,0.0,29.58,SSW,202,0.0,0.0,0,0.01,,---,0.35,VWS V14.00,2013-02-12 04:09:00,
2013-02-11 23:14:00,33.4,0.0,29.58,SSW,202,0.0,0.0,0,0.01,,---,0.35,VWS V14.00,2013-02-12 04:14:00,
2013-02-11 23:19:00,33.3,0.0,29.58,SSW,202,0.0,0.0,0,0.01,,---,0.35,VWS V14.00,2013-02-12 04:19:00,
2013-02-11 23:24:00,33.3,0.0,29.58,SSW,202,0.0,0.0,0,0.01,,---,0.35,VWS V14.00,2013-02-12 04:24:00,
2013-02-11 23:29:00,33.3,0.0,29.59,SSW,202,0.0,0.0,0,0.01,,---,0.35,VWS V14.00,2013-02-12 04:29:00,
2013-02-11 23:34:00,33.2,0.0,29.59,SSW,202,0.0,0.0,0,0.00,,---,0.35,VWS V14.00,2013-02-12 04:34:00,
2013-02-11 23:39:00,33.3,0.0,29.59,SSW,202,0.0,0.0,0,0.00,,---,0.35,VWS V14.00,2013-02-12 04:39:00,
2013-02-11 23:44:00,33.2,0.0,29.59,SSW,202,0.0,0.0,0,0.00,,---,0.35,VWS V14.00,2013-02-12 04:44:00,
2013-02-11 23:49:00,33.3,0.0,29.59,SSW,202,0.0,0.0,0,0.00,,---,0.35,VWS V14.00,2013-02-12 04:49:00,